createdAt,value
2023-02-03T00:14:44.201Z,42.20
2023-02-03T00:16:46.126Z,40.40
2023-02-03T00:20:49.830Z,41.22
2023-02-03T00:22:52.299Z,37.78
2023-02-03T00:24:54.145Z,39.22
2023-02-03T00:26:56.088Z,41.38
2023-02-03T00:29:00.601Z,42.42
2023-02-03T00:31:02.691Z,40.25
2023-02-03T00:33:05.146Z,44.45
2023-02-03T00:35:07.389Z,38.60
2023-02-03T00:37:12.132Z,40.38
2023-02-03T00:39:15.401Z,40.67
2023-02-03T00:41:18.200Z,42.20
2023-02-03T00:43:20.653Z,43.67
2023-02-03T00:45:22.688Z,40.22
2023-02-03T00:49:26.396Z,42.05
2023-02-03T00:53:29.979Z,43.78
2023-02-03T00:55:31.848Z,44.03
2023-02-03T00:57:33.798Z,41.80
2023-02-03T01:01:38.067Z,45.75
2023-02-03T01:03:40.001Z,43.95
2023-02-03T01:05:41.843Z,44.50
2023-02-03T01:07:43.712Z,47.83
2023-02-03T01:09:45.648Z,43.63
2023-02-03T01:13:50.407Z,41.92
2023-02-03T01:15:54.562Z,44.70
2023-02-03T01:17:56.399Z,43.45
2023-02-03T01:19:59.505Z,45.38
2023-02-03T01:22:01.359Z,46.10
2023-02-03T01:24:06.655Z,43.70
2023-02-03T01:26:11.379Z,44.58
2023-02-03T01:28:13.853Z,47.90
2023-02-03T01:30:15.878Z,46.58
2023-02-03T01:34:19.562Z,52.85
2023-02-03T01:38:24.389Z,46.15
2023-02-03T01:40:28.990Z,45.60
2023-02-03T01:42:33.964Z,51.08
2023-02-03T01:44:47.552Z,48.20
2023-02-03T01:46:51.411Z,55.05
2023-02-03T01:48:57.389Z,48.55
2023-02-03T01:51:02.819Z,47.55
2023-02-03T01:53:09.015Z,48.95
2023-02-03T01:55:14.660Z,46.53
2023-02-03T01:57:21.831Z,47.63
2023-02-03T01:59:27.206Z,49.70
2023-02-03T04:14:45.381Z,47.80
2023-02-03T04:16:47.216Z,45.50
2023-02-03T04:18:49.024Z,51.53
2023-02-03T04:20:50.948Z,45.45
2023-02-03T04:24:54.498Z,48.20
2023-02-03T04:26:56.423Z,48.60
2023-02-03T04:28:58.265Z,53.03
2023-02-03T04:31:03.128Z,51.40
2023-02-03T04:33:05.037Z,49.08
2023-02-03T04:35:07.654Z,50.42
2023-02-03T04:37:09.485Z,65.57
2023-02-03T04:39:11.540Z,51.13
2023-02-03T04:41:13.374Z,53.97
2023-02-03T04:43:17.054Z,57.88
2023-02-03T04:45:19.010Z,57.15
2023-02-03T04:49:22.583Z,53.03
2023-02-03T04:51:24.477Z,53.88
2023-02-03T04:55:28.589Z,59.50
2023-02-03T04:57:30.542Z,58.25
2023-02-03T05:01:34.534Z,56.25
2023-02-03T05:03:38.997Z,81.65
2023-02-03T05:05:40.870Z,59.88
2023-02-03T05:07:42.715Z,55.35
2023-02-03T05:09:44.662Z,60.00
2023-02-03T05:11:46.513Z,61.95
2023-02-03T05:13:48.446Z,58.30
2023-02-03T05:17:53.427Z,58.03
2023-02-03T05:19:55.282Z,57.80
2023-02-03T05:21:57.180Z,60.17
2023-02-03T05:26:02.209Z,59.40
2023-02-03T05:30:07.593Z,53.13
2023-02-03T05:32:09.551Z,59.88
2023-02-03T05:36:13.238Z,62.58
2023-02-03T05:38:15.125Z,62.25
2023-02-03T05:42:37.279Z,64.57
2023-02-03T05:44:39.148Z,65.95
2023-02-03T05:46:41.059Z,67.53
2023-02-03T05:50:44.770Z,73.55
2023-02-03T05:54:48.343Z,78.15
2023-02-03T05:56:50.512Z,63.78
2023-02-03T05:58:53.565Z,65.88
2023-02-03T06:00:55.487Z,63.78
2023-02-03T08:13:59.828Z,50.38
2023-02-03T08:18:03.720Z,46.92
2023-02-03T08:20:06.363Z,37.28
2023-02-03T08:22:08.201Z,63.53
2023-02-03T08:24:12.218Z,71.32
2023-02-03T08:26:14.117Z,74.63
2023-02-03T08:28:15.971Z,53.22
2023-02-03T08:30:17.999Z,52.90
2023-02-03T08:32:21.966Z,45.88
2023-02-03T08:34:23.855Z,40.35
2023-02-03T08:36:25.948Z,48.95
2023-02-03T08:40:30.031Z,39.22
2023-02-03T08:42:32.253Z,37.95
2023-02-03T08:44:34.764Z,37.13
2023-02-03T08:46:37.617Z,47.92
2023-02-03T08:48:39.780Z,48.42
2023-02-03T08:52:44.011Z,42.38
2023-02-03T08:54:47.360Z,41.42
2023-02-03T08:56:49.298Z,44.80
2023-02-03T08:58:51.131Z,36.47
2023-02-03T09:00:53.349Z,38.28
2023-02-03T09:02:55.386Z,35.58
2023-02-03T09:04:57.401Z,34.92
2023-02-03T09:09:02.337Z,38.72
2023-02-03T09:11:11.457Z,40.05
2023-02-03T09:13:13.305Z,40.33
2023-02-03T09:15:15.427Z,44.25
2023-02-03T09:19:21.720Z,37.47
2023-02-03T09:21:35.464Z,42.22
2023-02-03T09:23:45.457Z,37.58
2023-02-03T09:25:49.435Z,40.83
2023-02-03T09:27:51.531Z,39.88
2023-02-03T09:29:53.472Z,38.42
2023-02-03T09:31:55.490Z,37.13
2023-02-03T09:36:02.284Z,36.10
2023-02-03T09:38:04.220Z,43.72
2023-02-03T09:40:07.089Z,38.28
2023-02-03T09:42:32.377Z,39.00
2023-02-03T09:44:52.476Z,46.95
2023-02-03T09:47:02.379Z,39.95
2023-02-03T09:49:13.291Z,43.45
2023-02-03T09:51:22.595Z,43.30
2023-02-03T09:53:37.130Z,47.67
2023-02-03T09:55:44.259Z,43.45
2023-02-03T09:58:02.792Z,38.22
2023-02-03T10:00:20.769Z,41.47
2023-02-03T12:13:58.877Z,29.48
2023-02-03T12:16:03.622Z,21.58
2023-02-03T12:18:30.549Z,23.30
2023-02-03T12:20:54.442Z,25.58
2023-02-03T12:23:24.970Z,27.98
2023-02-03T12:25:40.011Z,20.65
2023-02-03T12:28:16.015Z,23.60
2023-02-03T12:30:28.287Z,25.40
2023-02-03T12:32:38.642Z,25.65
2023-02-03T12:35:11.201Z,26.48
2023-02-03T12:37:34.074Z,25.58
2023-02-03T12:39:38.730Z,29.02
2023-02-03T12:41:58.413Z,25.35
2023-02-03T12:44:05.575Z,27.70
2023-02-03T12:46:31.717Z,28.73
2023-02-03T12:48:44.769Z,32.92
2023-02-03T12:50:51.786Z,30.23
2023-02-03T12:53:00.682Z,25.02
2023-02-03T12:55:29.574Z,29.40
2023-02-03T12:57:44.277Z,39.42
2023-02-03T13:00:00.731Z,43.15
2023-02-03T13:02:24.946Z,37.78
2023-02-03T13:04:49.675Z,46.45
2023-02-03T13:07:06.032Z,47.80
2023-02-03T13:09:28.366Z,44.72
2023-02-03T13:11:51.801Z,49.58
2023-02-03T13:14:02.073Z,51.83
2023-02-03T13:16:08.574Z,48.35
2023-02-03T13:18:19.317Z,41.47
2023-02-03T13:20:31.292Z,56.15
2023-02-03T13:22:33.512Z,56.72
2023-02-03T13:26:55.663Z,38.70
2023-02-03T13:29:47.739Z,41.65
2023-02-03T13:32:08.201Z,58.65
2023-02-03T13:34:22.323Z,51.53
2023-02-03T13:36:42.208Z,44.72
2023-02-03T13:39:11.762Z,41.13
2023-02-03T13:41:30.408Z,45.45
2023-02-03T13:43:39.007Z,38.28
2023-02-03T13:45:50.503Z,42.42
2023-02-03T13:48:00.824Z,40.38
2023-02-03T13:50:08.310Z,49.78
2023-02-03T13:52:29.659Z,53.80
2023-02-03T13:54:36.613Z,48.22
2023-02-03T13:56:40.722Z,47.90
2023-02-03T13:58:42.704Z,57.70
2023-02-03T16:13:58.172Z,18.33
2023-02-03T16:16:21.310Z,22.42
2023-02-03T16:18:23.538Z,29.30
2023-02-03T16:20:28.659Z,25.17
2023-02-03T16:22:36.076Z,27.92
2023-02-03T16:24:42.772Z,36.22
2023-02-03T16:26:44.991Z,32.65
2023-02-03T16:29:26.632Z,28.83
2023-02-03T16:31:47.429Z,51.60
2023-02-03T16:34:09.663Z,63.50
2023-02-03T16:36:32.555Z,84.95
2023-02-03T16:41:13.932Z,63.80
2023-02-03T16:43:35.647Z,38.33
2023-02-03T16:45:56.290Z,61.00
2023-02-03T16:48:16.760Z,24.38
2023-02-03T16:50:41.036Z,41.35
2023-02-03T16:52:45.060Z,38.95
2023-02-03T16:54:47.428Z,46.03
2023-02-03T16:56:51.250Z,46.75
2023-02-03T16:58:53.165Z,32.20
2023-02-03T17:00:55.743Z,44.53
2023-02-03T17:02:58.715Z,50.50
2023-02-03T17:05:02.804Z,46.60
2023-02-03T17:07:05.584Z,33.60
2023-02-03T17:09:08.556Z,53.20
2023-02-03T17:11:17.539Z,42.17
2023-02-03T17:13:21.627Z,40.30
2023-02-03T17:15:23.462Z,53.17
2023-02-03T17:17:25.790Z,60.20
2023-02-03T17:19:27.878Z,67.47
2023-02-03T17:21:31.185Z,63.92
2023-02-03T17:23:33.175Z,39.55
2023-02-03T17:27:40.672Z,31.63
2023-02-03T17:29:42.697Z,27.90
2023-02-03T17:33:50.901Z,25.25
2023-02-03T17:36:10.840Z,29.38
2023-02-03T17:38:17.098Z,30.27
2023-02-03T17:54:17.832Z,24.25
2023-02-03T17:56:24.274Z,25.00
2023-02-03T17:58:26.195Z,23.90
2023-02-03T18:02:30.493Z,22.58
2023-02-03T18:06:35.229Z,23.60
2023-02-03T18:08:37.338Z,23.02
2023-02-03T18:10:39.462Z,23.75
2023-02-03T18:12:41.833Z,28.00
2023-02-03T18:14:43.758Z,26.25
2023-02-03T18:16:46.120Z,27.70
2023-02-03T18:18:49.272Z,27.23
2023-02-03T18:20:51.717Z,28.92
2023-02-03T18:22:54.943Z,28.23
2023-02-03T18:24:57.530Z,27.85
2023-02-03T18:27:00.858Z,27.92
2023-02-03T18:29:05.542Z,37.55
2023-02-03T18:31:15.415Z,47.38
2023-02-03T18:33:18.276Z,37.65
2023-02-03T18:35:20.380Z,30.65
2023-02-03T18:39:24.741Z,22.90
2023-02-03T18:41:27.324Z,23.77
2023-02-03T18:43:29.492Z,21.20
2023-02-03T18:45:34.517Z,25.83
2023-02-03T18:47:37.513Z,23.50
2023-02-03T18:49:40.992Z,24.63
2023-02-03T18:51:42.893Z,25.13
2023-02-03T18:53:46.793Z,22.67
2023-02-03T18:55:48.891Z,21.65
2023-02-03T18:57:51.054Z,22.00
2023-02-03T18:59:52.943Z,21.67
2023-02-03T19:01:55.074Z,19.80
2023-02-03T19:03:59.737Z,24.20
2023-02-03T19:06:02.208Z,22.85
2023-02-03T19:08:04.158Z,24.13
2023-02-03T19:10:06.306Z,24.98
2023-02-03T19:12:08.556Z,24.77
2023-02-03T19:14:13.179Z,23.77
2023-02-03T19:16:17.176Z,26.95
2023-02-03T19:18:21.458Z,28.52
2023-02-03T19:20:23.409Z,25.92
2023-02-03T19:24:27.653Z,22.10
2023-02-03T19:26:29.585Z,22.02
2023-02-03T19:30:36.628Z,28.90
2023-02-03T19:32:38.512Z,31.92
2023-02-03T19:34:40.715Z,44.67
2023-02-03T19:36:43.513Z,49.05
2023-02-03T19:38:45.457Z,66.50
2023-02-03T19:42:50.095Z,64.50
2023-02-03T19:44:52.002Z,64.40
2023-02-03T19:48:55.797Z,90.50
2023-02-03T19:52:59.766Z,100.50
2023-02-03T19:55:01.724Z,91.25
2023-02-03T19:59:05.963Z,94.07
2023-02-03T20:01:07.840Z,85.35
2023-02-03T20:03:10.159Z,97.45
2023-02-03T20:05:13.043Z,93.80
2023-02-03T20:07:15.042Z,85.05
2023-02-03T20:11:22.501Z,86.32
2023-02-03T20:13:24.456Z,81.82
2023-02-03T20:19:30.819Z,67.75
2023-02-03T20:21:32.916Z,60.60
2023-02-03T20:23:35.205Z,57.53
2023-02-03T20:25:37.100Z,60.35
2023-02-03T20:27:39.260Z,64.63
2023-02-03T20:29:41.504Z,62.00
2023-02-03T20:31:43.773Z,60.47
2023-02-03T20:33:46.152Z,63.88
2023-02-03T20:35:48.099Z,73.10
2023-02-03T20:39:51.748Z,73.90
2023-02-03T20:41:53.817Z,69.90
2023-02-03T20:43:56.013Z,56.75
2023-02-03T20:45:58.398Z,51.90
2023-02-03T20:48:00.657Z,45.88
2023-02-03T20:50:02.736Z,46.83
2023-02-03T20:52:13.990Z,46.40
2023-02-03T20:54:23.027Z,37.83
2023-02-03T20:56:26.366Z,43.08
2023-02-03T20:58:31.443Z,43.40
2023-02-03T21:00:33.902Z,47.95
2023-02-03T21:02:55.808Z,47.17
2023-02-03T21:04:58.573Z,68.40
2023-02-03T21:07:01.524Z,75.53
2023-02-03T21:09:18.604Z,84.15
2023-02-03T21:11:26.799Z,82.70
2023-02-03T21:13:33.643Z,72.80
2023-02-03T21:15:35.682Z,83.72
2023-02-03T21:17:37.625Z,88.57
2023-02-03T21:21:46.816Z,91.53
2023-02-03T21:23:48.905Z,95.53
2023-02-03T21:25:50.861Z,102.80
2023-02-03T21:29:57.356Z,81.88
2023-02-03T21:32:00.626Z,80.78
2023-02-03T21:34:11.704Z,85.45
2023-02-03T21:36:21.304Z,73.22
2023-02-03T21:38:32.216Z,65.97
2023-02-03T21:40:35.214Z,59.78
2023-02-03T21:42:43.353Z,64.72
2023-02-03T21:44:45.660Z,66.28
2023-02-03T21:46:47.490Z,70.75
2023-02-03T21:48:51.662Z,69.90
2023-02-03T21:50:55.869Z,71.13
2023-02-03T21:53:21.877Z,81.70
2023-02-03T21:55:23.730Z,71.20
2023-02-03T21:57:25.746Z,76.70
2023-02-03T21:59:36.906Z,77.40
2023-02-03T22:01:39.424Z,68.97
2023-02-03T22:03:45.050Z,72.93
2023-02-03T22:05:48.037Z,72.00
2023-02-03T22:07:49.899Z,65.10
2023-02-03T22:11:54.847Z,59.38
2023-02-03T22:15:59.048Z,58.10
2023-02-03T22:20:02.922Z,50.30
2023-02-03T22:24:06.775Z,54.83
2023-02-03T22:26:10.171Z,44.17
2023-02-03T22:28:12.981Z,42.80
2023-02-03T22:30:15.983Z,58.80
2023-02-03T22:32:17.918Z,46.85
2023-02-03T22:36:23.511Z,42.90
2023-02-03T22:38:26.139Z,40.70
2023-02-03T22:40:28.441Z,33.65
2023-02-03T22:42:30.561Z,28.33
2023-02-03T22:44:32.436Z,31.73
2023-02-03T22:46:34.300Z,32.58
2023-02-03T22:50:38.364Z,32.95
2023-02-03T22:52:40.893Z,36.00
2023-02-03T22:54:42.985Z,30.27
2023-02-03T22:56:44.855Z,31.20
2023-02-03T23:00:48.498Z,31.05
2023-02-03T23:04:52.676Z,32.47
2023-02-03T23:06:54.561Z,34.72
2023-02-03T23:10:59.011Z,35.33
2023-02-03T23:13:00.904Z,34.35
2023-02-03T23:17:04.563Z,34.63
2023-02-03T23:21:08.128Z,45.08
2023-02-03T23:23:11.601Z,40.72
2023-02-03T23:25:13.510Z,43.35
2023-02-03T23:29:17.158Z,31.38
2023-02-03T23:33:20.900Z,37.70
2023-02-03T23:37:43.017Z,48.25
2023-02-03T23:41:46.691Z,39.63
2023-02-03T23:43:48.550Z,44.42
2023-02-03T23:47:52.247Z,48.15
2023-02-03T23:49:54.082Z,51.80
2023-02-03T23:53:57.750Z,41.60
2023-02-03T23:58:01.393Z,53.50
